Time;durP1;ratioP1;P1;durP2;ratioP2;P2;SDS_P1;SDS_P2;PMS_P1;PMS_P2;Temp;Humidity;BMP_temperature;BMP_pressure;BME280_temperature;BME280_humidity;BME280_pressure;Samples;Min_cycle;Max_cycle;Signal;HPM_P1;HPM_P2
2022/03/12 00:02:18;;;;;;;4.80;3.60;;;;;;;;;;5068936;28;20321;-75
2022/03/12 00:04:46;;;;;;;4.53;3.63;;;;;;;;;;5066999;28;20197;-75
2022/03/12 00:07:14;;;;;;;5.05;3.90;;;;;;;;;;5058473;28;20191;-75
2022/03/12 00:09:43;;;;;;;7.68;4.13;;;;;;;;;;5058476;28;20562;-75
2022/03/12 00:12:13;;;;;;;5.53;3.85;;;;;;;;;;5068056;28;20190;-75
2022/03/12 00:14:45;;;;;;;7.28;3.45;;;;;;;;;;5063598;28;20186;-75
2022/03/12 00:17:13;;;;;;;4.45;3.90;;;;;;;;;;5069882;28;20547;-74
2022/03/12 00:19:41;;;;;;;5.65;4.07;;;;;;;;;;5059565;28;20194;-75
2022/03/12 00:22:12;;;;;;;6.32;4.07;;;;;;;;;;5062401;28;20201;-75
2022/03/12 00:24:40;;;;;;;7.55;4.70;;;;;;;;;;5061004;28;20250;-76
2022/03/12 00:27:08;;;;;;;6.00;4.15;;;;;;;;;;5070063;28;20209;-75
2022/03/12 00:29:35;;;;;;;4.68;3.85;;;;;;;;;;5073301;28;20194;-74
2022/03/12 00:32:04;;;;;;;5.03;4.20;;;;;;;;;;5068510;28;20190;-75
2022/03/12 00:34:31;;;;;;;4.40;4.00;;;;;;;;;;5056414;28;20211;-75
2022/03/12 00:36:58;;;;;;;5.13;4.07;;;;;;;;;;5068332;28;20186;-75
2022/03/12 00:39:27;;;;;;;3.97;3.35;;;;;;;;;;5060539;28;20201;-75
2022/03/12 00:41:54;;;;;;;3.78;3.22;;;;;;;;;;5070227;28;20652;-75
2022/03/12 00:44:21;;;;;;;5.22;4.10;;;;;;;;;;5069805;28;20218;-76
2022/03/12 00:46:48;;;;;;;5.03;3.95;;;;;;;;;;5062470;28;20226;-75
2022/03/12 00:49:15;;;;;;;5.45;3.63;;;;;;;;;;5071042;28;20465;-74
2022/03/12 00:51:44;;;;;;;5.03;3.42;;;;;;;;;;5067206;28;20552;-74
2022/03/12 00:54:11;;;;;;;5.70;4.55;;;;;;;;;;5061045;28;20216;-74
2022/03/12 00:56:40;;;;;;;4.68;3.40;;;;;;;;;;5074408;28;20202;-73
2022/03/12 00:59:08;;;;;;;7.32;3.85;;;;;;;;;;5061178;28;20664;-74
2022/03/12 01:01:35;;;;;;;5.07;3.53;;;;;;;;;;5067457;28;20193;-74
2022/03/12 01:04:02;;;;;;;3.80;3.50;;;;;;;;;;5069875;28;20210;-74
2022/03/12 01:06:30;;;;;;;4.50;4.10;;;;;;;;;;5065416;28;20342;-75
2022/03/12 01:08:57;;;;;;;4.95;3.75;;;;;;;;;;5050141;28;20195;-74
2022/03/12 01:11:24;;;;;;;4.78;3.70;;;;;;;;;;5067875;28;20213;-75
2022/03/12 01:13:52;;;;;;;4.72;3.70;;;;;;;;;;5067836;28;20198;-74
2022/03/12 01:16:20;;;;;;;5.43;4.05;;;;;;;;;;5071002;28;20190;-75
2022/03/12 01:18:47;;;;;;;3.95;3.55;;;;;;;;;;5068240;28;20577;-74
2022/03/12 01:21:16;;;;;;;4.32;3.90;;;;;;;;;;5064316;28;20209;-74
2022/03/12 01:23:43;;;;;;;4.53;3.72;;;;;;;;;;5068534;28;20230;-74
2022/03/12 01:26:11;;;;;;;4.57;3.50;;;;;;;;;;5063902;28;20194;-75
2022/03/12 01:28:38;;;;;;;5.97;3.90;;;;;;;;;;5062732;28;20194;-74
2022/03/12 01:31:06;;;;;;;5.50;4.00;;;;;;;;;;5060137;28;20186;-74
2022/03/12 01:33:33;;;;;;;4.90;3.63;;;;;;;;;;5070190;28;20209;-74
2022/03/12 01:36:01;;;;;;;4.38;3.25;;;;;;;;;;5067123;28;20561;-74
2022/03/12 01:38:30;;;;;;;6.35;3.65;;;;;;;;;;5073759;28;20199;-74
2022/03/12 01:40:57;;;;;;;5.88;4.20;;;;;;;;;;5068081;28;20210;-74
2022/03/12 01:43:26;;;;;;;5.50;3.80;;;;;;;;;;5065929;28;20225;-74
2022/03/12 01:45:53;;;;;;;4.47;3.83;;;;;;;;;;5077362;28;20216;-74
2022/03/12 01:48:21;;;;;;;4.50;3.50;;;;;;;;;;5065755;28;20206;-74
2022/03/12 01:50:48;;;;;;;4.85;4.35;;;;;;;;;;5066367;28;20198;-75
2022/03/12 01:53:15;;;;;;;3.63;3.10;;;;;;;;;;5064078;28;20557;-74
2022/03/12 01:55:43;;;;;;;5.05;3.92;;;;;;;;;;5072156;28;20209;-74
2022/03/12 01:58:10;;;;;;;6.03;3.88;;;;;;;;;;5067549;28;20202;-74
2022/03/12 02:00:43;;;;;;;4.97;4.05;;;;;;;;;;5061477;28;20199;-74
2022/03/12 02:03:11;;;;;;;4.50;3.30;;;;;;;;;;5069006;28;20213;-74
2022/03/12 02:05:39;;;;;;;5.10;3.83;;;;;;;;;;5072936;28;20553;-74
2022/03/12 02:08:06;;;;;;;5.80;3.40;;;;;;;;;;5065095;28;20727;-73
2022/03/12 02:10:36;;;;;;;4.35;3.45;;;;;;;;;;5070009;28;20201;-74
2022/03/12 02:13:03;;;;;;;4.03;3.45;;;;;;;;;;5079617;28;20299;-75
2022/03/12 02:15:31;;;;;;;4.47;3.72;;;;;;;;;;5063004;28;20194;-74
2022/03/12 02:17:58;;;;;;;4.63;3.80;;;;;;;;;;5067929;28;20209;-75
2022/03/12 02:20:25;;;;;;;3.50;3.20;;;;;;;;;;5065017;28;20579;-73
2022/03/12 02:22:54;;;;;;;4.30;3.85;;;;;;;;;;5064769;28;20191;-73
2022/03/12 02:25:27;;;;;;;3.83;3.28;;;;;;;;;;5064742;28;20313;-73
2022/03/12 02:27:54;;;;;;;5.97;4.35;;;;;;;;;;5071843;28;20336;-73
2022/03/12 02:30:21;;;;;;;4.85;3.33;;;;;;;;;;5066780;28;20560;-73
2022/03/12 02:32:54;;;;;;;3.67;3.38;;;;;;;;;;5068345;28;20195;-74
2022/03/12 02:35:24;;;;;;;3.05;2.70;;;;;;;;;;5070078;28;20194;-74
2022/03/12 02:37:52;;;;;;;3.95;3.60;;;;;;;;;;5070532;28;20198;-73
2022/03/12 02:40:20;;;;;;;4.70;3.28;;;;;;;;;;5076486;28;20249;-74
2022/03/12 02:42:51;;;;;;;3.53;3.22;;;;;;;;;;5073577;28;20676;-74
2022/03/12 02:45:22;;;;;;;4.72;3.58;;;;;;;;;;5067975;28;20587;-74
2022/03/12 02:47:50;;;;;;;4.40;4.00;;;;;;;;;;5066962;28;20281;-74
2022/03/12 02:50:18;;;;;;;5.43;3.97;;;;;;;;;;5068509;28;20285;-74
2022/03/12 02:52:46;;;;;;;3.60;2.95;;;;;;;;;;5066569;28;20309;-74
2022/03/12 02:55:14;;;;;;;5.15;4.22;;;;;;;;;;5071098;28;20194;-73
2022/03/12 02:57:42;;;;;;;3.85;3.45;;;;;;;;;;5069030;28;20201;-74
2022/03/12 03:00:12;;;;;;;4.80;3.13;;;;;;;;;;5082698;28;20218;-73
2022/03/12 03:02:40;;;;;;;3.85;3.42;;;;;;;;;;5067606;28;20205;-73
2022/03/12 03:05:08;;;;;;;3.50;3.20;;;;;;;;;;5071187;28;20218;-73
2022/03/12 03:07:36;;;;;;;4.38;3.75;;;;;;;;;;5070455;28;20256;-73
2022/03/12 03:10:04;;;;;;;3.90;3.25;;;;;;;;;;5066516;28;20218;-74
2022/03/12 03:12:31;;;;;;;4.50;3.78;;;;;;;;;;5070980;28;20237;-73
2022/03/12 03:14:58;;;;;;;3.92;3.47;;;;;;;;;;5061261;28;20193;-74
2022/03/12 03:17:28;;;;;;;3.25;2.95;;;;;;;;;;5069230;28;20194;-75
2022/03/12 03:19:55;;;;;;;6.50;3.38;;;;;;;;;;5065350;28;20240;-75
2022/03/12 03:22:22;;;;;;;4.35;3.35;;;;;;;;;;5069444;28;20517;-75
2022/03/12 03:24:49;;;;;;;3.90;3.50;;;;;;;;;;5060313;28;20225;-75
2022/03/12 03:27:16;;;;;;;3.33;2.92;;;;;;;;;;5069116;28;20580;-75
2022/03/12 03:29:43;;;;;;;6.20;3.25;;;;;;;;;;5064481;28;20194;-75
2022/03/12 03:32:10;;;;;;;4.68;3.90;;;;;;;;;;5066498;28;20439;-74
2022/03/12 03:34:39;;;;;;;4.38;3.95;;;;;;;;;;5064282;28;20197;-74
2022/03/12 03:37:06;;;;;;;4.93;4.35;;;;;;;;;;5056084;28;22028;-74
2022/03/12 03:39:33;;;;;;;5.53;3.30;;;;;;;;;;5069768;28;20198;-73
2022/03/12 03:42:00;;;;;;;3.38;2.90;;;;;;;;;;5069645;28;20190;-73
2022/03/12 03:44:28;;;;;;;5.45;4.05;;;;;;;;;;5068622;28;20214;-73
2022/03/12 03:46:55;;;;;;;5.25;3.60;;;;;;;;;;5067872;28;20221;-73
2022/03/12 03:49:24;;;;;;;4.82;3.90;;;;;;;;;;5066713;28;20189;-73
2022/03/12 03:51:53;;;;;;;4.40;3.45;;;;;;;;;;5063066;28;20557;-74
2022/03/12 03:54:20;;;;;;;4.20;3.80;;;;;;;;;;5064358;28;20293;-74
2022/03/12 03:56:47;;;;;;;6.07;4.68;;;;;;;;;;5067697;28;20197;-74
2022/03/12 03:59:14;;;;;;;4.40;3.50;;;;;;;;;;5067016;28;20197;-73
2022/03/12 04:01:42;;;;;;;4.22;3.80;;;;;;;;;;5071172;28;20198;-73
2022/03/12 04:04:12;;;;;;;3.83;3.20;;;;;;;;;;5070251;28;20310;-73
2022/03/12 04:06:39;;;;;;;4.05;3.65;;;;;;;;;;5063662;28;20546;-74
2022/03/12 04:09:07;;;;;;;4.25;3.90;;;;;;;;;;5073886;28;20195;-72
2022/03/12 04:11:35;;;;;;;5.18;3.83;;;;;;;;;;5068904;28;20198;-72
2022/03/12 04:14:02;;;;;;;7.68;3.03;;;;;;;;;;5067655;28;20201;-73
2022/03/12 04:16:31;;;;;;;4.20;3.80;;;;;;;;;;5067999;28;20205;-73
2022/03/12 04:18:58;;;;;;;3.92;3.50;;;;;;;;;;5067360;28;20194;-74
2022/03/12 04:21:25;;;;;;;5.00;3.78;;;;;;;;;;5063920;28;20283;-73
2022/03/12 04:23:52;;;;;;;4.50;3.45;;;;;;;;;;5064979;28;20218;-73
2022/03/12 04:26:21;;;;;;;4.43;3.97;;;;;;;;;;5068051;28;20197;-73
2022/03/12 04:28:48;;;;;;;4.72;3.90;;;;;;;;;;5067730;28;20531;-73
2022/03/12 04:31:15;;;;;;;7.75;4.47;;;;;;;;;;5065152;28;20221;-73
2022/03/12 04:33:42;;;;;;;4.38;3.25;;;;;;;;;;5067979;28;20314;-73
2022/03/12 04:36:11;;;;;;;4.88;3.67;;;;;;;;;;5068446;28;20190;-75
2022/03/12 04:38:38;;;;;;;4.65;3.60;;;;;;;;;;5072072;28;20194;-73
2022/03/12 04:41:05;;;;;;;5.40;3.97;;;;;;;;;;5062341;28;20202;-73
2022/03/12 04:43:34;;;;;;;7.07;3.72;;;;;;;;;;5067197;28;20198;-73
2022/03/12 04:46:02;;;;;;;3.72;3.20;;;;;;;;;;5068980;28;20645;-73
2022/03/12 04:48:29;;;;;;;3.33;3.03;;;;;;;;;;5069899;28;20202;-74
2022/03/12 04:50:57;;;;;;;5.18;3.78;;;;;;;;;;5067714;28;20209;-73
2022/03/12 04:53:25;;;;;;;5.45;4.15;;;;;;;;;;5059188;28;20703;-73
2022/03/12 04:55:52;;;;;;;5.80;3.63;;;;;;;;;;5063062;28;20471;-73
2022/03/12 04:58:20;;;;;;;4.13;3.45;;;;;;;;;;5064295;28;20252;-75
2022/03/12 05:00:48;;;;;;;4.82;4.20;;;;;;;;;;5068064;28;20194;-74
2022/03/12 05:03:18;;;;;;;4.22;3.70;;;;;;;;;;5073387;28;20195;-74
2022/03/12 05:05:46;;;;;;;4.63;3.30;;;;;;;;;;5070593;28;20222;-74
2022/03/12 05:08:15;;;;;;;3.75;3.45;;;;;;;;;;5061482;28;20668;-75
2022/03/12 05:10:42;;;;;;;5.47;3.80;;;;;;;;;;5067983;28;20198;-75
2022/03/12 05:13:10;;;;;;;3.53;3.22;;;;;;;;;;5067482;28;20205;-74
2022/03/12 05:15:38;;;;;;;8.15;4.65;;;;;;;;;;5074912;28;20202;-73
2022/03/12 05:18:07;;;;;;;4.40;3.25;;;;;;;;;;5062705;28;20191;-74
2022/03/12 05:20:35;;;;;;;4.18;3.78;;;;;;;;;;5068448;28;20194;-73
2022/03/12 05:23:02;;;;;;;4.93;3.83;;;;;;;;;;5066255;28;20194;-74
2022/03/12 05:25:31;;;;;;;5.22;3.85;;;;;;;;;;5066997;28;20222;-73
2022/03/12 05:27:58;;;;;;;4.78;3.22;;;;;;;;;;5066556;28;20202;-74
2022/03/12 05:30:27;;;;;;;6.35;4.70;;;;;;;;;;5058726;28;20309;-74
2022/03/12 05:32:55;;;;;;;5.97;4.47;;;;;;;;;;5066326;28;20190;-73
2022/03/12 05:35:23;;;;;;;5.25;4.00;;;;;;;;;;5069314;28;20198;-74
2022/03/12 05:37:51;;;;;;;3.72;3.30;;;;;;;;;;5065795;28;20190;-74
2022/03/12 05:40:19;;;;;;;4.82;3.92;;;;;;;;;;5069091;28;20198;-74
2022/03/12 05:42:47;;;;;;;4.68;3.45;;;;;;;;;;5064913;28;20202;-74
2022/03/12 05:45:14;;;;;;;5.07;4.20;;;;;;;;;;5064490;28;20214;-74
2022/03/12 05:47:42;;;;;;;5.90;3.55;;;;;;;;;;5068481;28;20285;-74
2022/03/12 05:50:10;;;;;;;3.92;3.13;;;;;;;;;;5068883;28;20209;-73
2022/03/12 05:52:39;;;;;;;4.15;3.72;;;;;;;;;;5066652;28;22240;-75
2022/03/12 05:55:08;;;;;;;4.30;3.90;;;;;;;;;;5067078;28;20202;-74
2022/03/12 05:57:35;;;;;;;5.57;4.20;;;;;;;;;;5075845;28;20639;-74
2022/03/12 06:00:03;;;;;;;4.18;3.78;;;;;;;;;;5059111;28;20191;-74
2022/03/12 06:02:30;;;;;;;5.70;5.03;;;;;;;;;;5070818;28;20252;-74
2022/03/12 06:04:58;;;;;;;6.70;4.13;;;;;;;;;;5079409;28;20225;-73
2022/03/12 06:07:27;;;;;;;4.15;3.70;;;;;;;;;;5071521;28;20190;-74
2022/03/12 06:09:56;;;;;;;4.90;3.70;;;;;;;;;;5070912;28;20714;-73
2022/03/12 06:12:24;;;;;;;4.95;3.75;;;;;;;;;;5071481;28;20198;-74
2022/03/12 06:14:52;;;;;;;4.20;3.80;;;;;;;;;;5061669;28;20198;-73
2022/03/12 06:17:20;;;;;;;4.95;3.70;;;;;;;;;;5077940;28;20201;-73
2022/03/12 06:19:47;;;;;;;3.92;3.38;;;;;;;;;;5081191;28;20194;-73
2022/03/12 06:22:14;;;;;;;5.25;3.88;;;;;;;;;;5068552;28;20202;-74
2022/03/12 06:24:41;;;;;;;3.60;3.30;;;;;;;;;;5063349;28;20226;-73
2022/03/12 06:27:09;;;;;;;4.05;2.85;;;;;;;;;;5067899;28;20227;-73
2022/03/12 06:29:36;;;;;;;3.92;3.47;;;;;;;;;;5065707;28;20194;-73
2022/03/12 06:32:05;;;;;;;5.40;4.10;;;;;;;;;;5067311;28;20202;-73
2022/03/12 06:34:34;;;;;;;5.07;4.10;;;;;;;;;;5072597;28;20205;-73
2022/03/12 06:37:02;;;;;;;4.88;4.07;;;;;;;;;;5068468;28;20206;-73
2022/03/12 06:39:29;;;;;;;8.10;4.78;;;;;;;;;;5069512;28;20572;-73
2022/03/12 06:41:57;;;;;;;5.32;4.47;;;;;;;;;;5070997;28;20198;-73
2022/03/12 06:44:32;;;;;;;5.45;4.22;;;;;;;;;;5065425;28;20233;-74
2022/03/12 06:46:59;;;;;;;6.97;4.13;;;;;;;;;;5070774;28;20190;-73
2022/03/12 06:49:27;;;;;;;7.57;4.90;;;;;;;;;;5070354;28;20190;-73
2022/03/12 06:51:54;;;;;;;4.88;4.35;;;;;;;;;;5067272;28;20221;-73
2022/03/12 06:54:21;;;;;;;8.73;4.20;;;;;;;;;;5069367;28;20195;-73
2022/03/12 06:56:48;;;;;;;15.30;5.50;;;;;;;;;;5064864;28;20194;-73
2022/03/12 06:59:15;;;;;;;5.97;4.47;;;;;;;;;;5066112;28;20209;-74
2022/03/12 07:01:44;;;;;;;6.28;4.97;;;;;;;;;;5070218;28;20194;-74
2022/03/12 07:04:11;;;;;;;4.70;4.20;;;;;;;;;;5071088;28;20217;-74
2022/03/12 07:06:38;;;;;;;6.18;4.45;;;;;;;;;;5068661;28;20727;-73
2022/03/12 07:09:05;;;;;;;3.90;3.47;;;;;;;;;;5052782;28;20191;-74
2022/03/12 07:11:33;;;;;;;5.85;4.45;;;;;;;;;;5068309;28;20220;-73
2022/03/12 07:14:00;;;;;;;6.47;4.70;;;;;;;;;;5068982;28;20194;-74
2022/03/12 07:16:27;;;;;;;4.82;3.85;;;;;;;;;;5067130;28;20206;-74
2022/03/12 07:18:56;;;;;;;6.68;4.80;;;;;;;;;;5070470;28;20194;-74
2022/03/12 07:21:24;;;;;;;5.15;4.43;;;;;;;;;;5065754;28;20216;-74
2022/03/12 07:23:51;;;;;;;5.85;3.92;;;;;;;;;;5063051;28;20241;-74
2022/03/12 07:26:18;;;;;;;4.07;3.58;;;;;;;;;;5066791;28;20214;-73
2022/03/12 07:28:45;;;;;;;5.28;4.13;;;;;;;;;;5059105;28;20198;-74
2022/03/12 07:31:15;;;;;;;5.32;4.35;;;;;;;;;;5070724;28;20202;-75
2022/03/12 07:33:42;;;;;;;4.40;4.00;;;;;;;;;;5064784;28;20202;-74
2022/03/12 07:36:10;;;;;;;4.80;3.45;;;;;;;;;;5068436;28;20600;-74
2022/03/12 07:38:38;;;;;;;4.75;4.30;;;;;;;;;;5066303;28;20225;-74
2022/03/12 07:41:05;;;;;;;7.45;4.43;;;;;;;;;;5066401;28;20198;-73
2022/03/12 07:43:32;;;;;;;5.30;4.25;;;;;;;;;;5057967;28;20198;-74
2022/03/12 07:45:59;;;;;;;5.13;3.95;;;;;;;;;;5067158;28;20214;-74
2022/03/12 07:48:26;;;;;;;7.40;4.97;;;;;;;;;;5057407;28;20210;-74
2022/03/12 07:50:53;;;;;;;4.82;4.32;;;;;;;;;;5066914;28;20205;-73
2022/03/12 07:53:21;;;;;;;5.65;4.03;;;;;;;;;;5071234;28;20194;-74
2022/03/12 07:55:48;;;;;;;6.40;4.47;;;;;;;;;;5068947;28;20193;-74
2022/03/12 07:58:15;;;;;;;7.38;5.10;;;;;;;;;;5066524;28;20202;-73
2022/03/12 08:00:42;;;;;;;6.15;4.50;;;;;;;;;;5065148;28;20202;-74
2022/03/12 08:03:09;;;;;;;4.95;3.85;;;;;;;;;;5067954;28;20202;-73
2022/03/12 08:05:37;;;;;;;6.03;3.67;;;;;;;;;;5069593;28;20217;-73
2022/03/12 08:08:04;;;;;;;5.60;4.15;;;;;;;;;;5062702;28;20202;-74
2022/03/12 08:11:24;;;;;;;5.22;4.03;;;;;;;;;;5066590;28;20623;-74
2022/03/12 08:13:21;;;;;;;4.78;4.18;;;;;;;;;;5062940;28;20282;-73
2022/03/12 08:15:49;;;;;;;5.50;4.47;;;;;;;;;;5061553;28;20194;-73
2022/03/12 08:18:17;;;;;;;5.63;4.05;;;;;;;;;;5059510;28;20191;-74
2022/03/12 08:20:45;;;;;;;5.40;4.45;;;;;;;;;;5061778;28;20209;-73
2022/03/12 08:23:12;;;;;;;6.25;4.60;;;;;;;;;;5059432;28;20279;-74
2022/03/12 08:25:40;;;;;;;6.30;4.45;;;;;;;;;;5063206;28;20352;-73
2022/03/12 08:28:07;;;;;;;7.65;4.35;;;;;;;;;;5062892;28;20186;-74
2022/03/12 08:30:35;;;;;;;7.32;4.93;;;;;;;;;;5056464;28;20198;-73
2022/03/12 08:33:02;;;;;;;7.93;4.78;;;;;;;;;;5059765;28;20297;-76
2022/03/12 08:35:29;;;;;;;4.70;3.72;;;;;;;;;;5068386;28;20202;-74
2022/03/12 08:37:56;;;;;;;6.72;4.72;;;;;;;;;;5061110;28;20645;-75
2022/03/12 08:40:25;;;;;;;6.93;4.72;;;;;;;;;;5066357;28;20214;-74
2022/03/12 08:42:54;;;;;;;4.57;4.00;;;;;;;;;;5069447;28;20222;-75
2022/03/12 08:45:22;;;;;;;4.82;4.32;;;;;;;;;;5064949;28;20512;-74
2022/03/12 08:47:50;;;;;;;5.70;3.65;;;;;;;;;;5069798;28;20198;-74
2022/03/12 08:50:19;;;;;;;5.43;4.75;;;;;;;;;;5071398;28;20190;-74
2022/03/12 08:52:47;;;;;;;12.23;4.35;;;;;;;;;;5064975;28;20201;-72
2022/03/12 08:55:14;;;;;;;4.03;3.63;;;;;;;;;;5071424;28;20247;-79
2022/03/12 08:57:41;;;;;;;4.65;4.13;;;;;;;;;;5068171;28;20194;-78
2022/03/12 09:00:12;;;;;;;5.57;4.43;;;;;;;;;;5068069;28;20292;-80
2022/03/12 09:02:40;;;;;;;5.20;4.43;;;;;;;;;;5079407;28;20242;-77
2022/03/12 09:05:08;;;;;;;6.15;4.03;;;;;;;;;;5067247;28;20244;-79
2022/03/12 09:07:36;;;;;;;5.65;3.72;;;;;;;;;;5062527;28;20198;-78
2022/03/12 09:10:05;;;;;;;6.38;4.30;;;;;;;;;;5069239;28;20202;-79
2022/03/12 09:12:32;;;;;;;4.47;3.95;;;;;;;;;;5070914;28;20194;-72
2022/03/12 09:14:59;;;;;;;4.68;3.13;;;;;;;;;;5068222;28;20209;-73
2022/03/12 09:17:27;;;;;;;4.38;3.83;;;;;;;;;;5069324;28;20198;-73
2022/03/12 09:19:54;;;;;;;5.82;4.10;;;;;;;;;;5070019;28;20661;-73
2022/03/12 09:22:23;;;;;;;3.85;3.45;;;;;;;;;;5066339;28;20205;-72
2022/03/12 09:24:50;;;;;;;3.92;3.63;;;;;;;;;;5064506;28;20233;-71
2022/03/12 09:27:17;;;;;;;4.32;3.92;;;;;;;;;;5067611;28;20210;-72
2022/03/12 09:29:44;;;;;;;5.07;4.53;;;;;;;;;;5067511;28;20190;-72
2022/03/12 09:32:11;;;;;;;5.00;4.18;;;;;;;;;;5066738;28;20187;-71
2022/03/12 09:34:40;;;;;;;9.30;4.93;;;;;;;;;;5064665;28;20656;-72
2022/03/12 09:37:07;;;;;;;5.40;4.85;;;;;;;;;;5070500;28;20198;-72
2022/03/12 09:39:35;;;;;;;4.70;4.15;;;;;;;;;;5072363;28;20694;-71
2022/03/12 09:42:02;;;;;;;6.10;4.57;;;;;;;;;;5074272;28;20229;-72
2022/03/12 09:44:29;;;;;;;4.07;3.67;;;;;;;;;;5070854;28;20199;-72
2022/03/12 09:46:56;;;;;;;4.28;3.85;;;;;;;;;;5076397;28;20213;-71
2022/03/12 09:49:23;;;;;;;4.35;3.40;;;;;;;;;;5074256;28;20218;-72
2022/03/12 09:51:52;;;;;;;3.42;3.13;;;;;;;;;;5078288;28;20537;-71
2022/03/12 09:54:19;;;;;;;4.20;3.80;;;;;;;;;;5066603;28;20193;-70
2022/03/12 09:56:46;;;;;;;5.13;4.63;;;;;;;;;;5072525;28;20194;-72
2022/03/12 09:59:13;;;;;;;5.40;4.90;;;;;;;;;;5067052;28;20374;-71
2022/03/12 10:01:40;;;;;;;6.15;4.75;;;;;;;;;;5072868;28;20456;-72
2022/03/12 10:04:07;;;;;;;6.03;5.05;;;;;;;;;;5074229;28;20198;-72
2022/03/12 10:06:34;;;;;;;6.20;5.20;;;;;;;;;;5072363;28;20233;-72
2022/03/12 10:09:04;;;;;;;5.07;4.10;;;;;;;;;;5070843;28;20197;-72
2022/03/12 10:11:33;;;;;;;6.78;4.03;;;;;;;;;;5077435;28;20185;-71
2022/03/12 10:14:00;;;;;;;7.90;7.10;;;;;;;;;;5071117;28;20203;-72
2022/03/12 10:16:29;;;;;;;4.72;4.05;;;;;;;;;;5069013;28;20198;-71
2022/03/12 10:18:57;;;;;;;5.20;4.47;;;;;;;;;;5073792;28;20198;-71
2022/03/12 10:21:24;;;;;;;5.55;4.97;;;;;;;;;;5071350;28;20217;-72
2022/03/12 10:23:51;;;;;;;4.80;3.40;;;;;;;;;;5066589;28;20310;-71
2022/03/12 10:26:19;;;;;;;4.53;3.85;;;;;;;;;;5065547;28;20546;-72
2022/03/12 10:28:46;;;;;;;6.75;3.90;;;;;;;;;;5070838;28;20560;-72
2022/03/12 10:31:14;;;;;;;4.45;3.83;;;;;;;;;;5071993;28;20191;-72
2022/03/12 10:33:41;;;;;;;4.28;3.65;;;;;;;;;;5071950;28;20196;-71
2022/03/12 10:36:11;;;;;;;4.00;3.58;;;;;;;;;;5073004;28;20198;-72
2022/03/12 10:38:39;;;;;;;10.18;4.50;;;;;;;;;;5065656;28;20213;-72
2022/03/12 10:41:07;;;;;;;3.83;3.50;;;;;;;;;;5069672;28;20322;-71
2022/03/12 10:43:43;;;;;;;4.75;3.80;;;;;;;;;;5071693;28;20402;-72
2022/03/12 10:46:10;;;;;;;5.28;3.60;;;;;;;;;;5068315;28;20237;-72
2022/03/12 10:48:39;;;;;;;5.25;3.42;;;;;;;;;;5072489;28;20266;-71
2022/03/12 10:51:06;;;;;;;4.75;3.42;;;;;;;;;;5076401;28;20193;-72
2022/03/12 10:53:34;;;;;;;4.28;3.85;;;;;;;;;;5065581;28;20651;-71
2022/03/12 10:56:06;;;;;;;4.00;3.45;;;;;;;;;;5072502;28;20546;-75
2022/03/12 10:58:34;;;;;;;5.63;3.78;;;;;;;;;;5072148;28;20218;-73
2022/03/12 11:01:02;;;;;;;3.60;3.30;;;;;;;;;;5068705;28;20268;-72
2022/03/12 11:03:30;;;;;;;4.82;4.00;;;;;;;;;;5068466;28;20206;-72
2022/03/12 11:05:58;;;;;;;4.15;3.40;;;;;;;;;;5069891;28;20684;-72
2022/03/12 11:08:26;;;;;;;4.20;3.30;;;;;;;;;;5061208;28;20186;-72
2022/03/12 11:10:58;;;;;;;5.75;4.13;;;;;;;;;;5067797;28;20557;-72
2022/03/12 11:13:34;;;;;;;3.35;2.95;;;;;;;;;;5070379;28;20198;-73
2022/03/12 11:16:12;;;;;;;3.53;2.88;;;;;;;;;;5071444;28;20225;-74
2022/03/12 11:18:40;;;;;;;4.70;3.28;;;;;;;;;;5070217;28;20281;-74
2022/03/12 11:21:07;;;;;;;4.88;3.63;;;;;;;;;;5070587;28;20202;-73
2022/03/12 11:23:34;;;;;;;3.38;2.88;;;;;;;;;;5068643;28;20226;-73
2022/03/12 11:26:06;;;;;;;4.50;4.10;;;;;;;;;;5065020;28;20225;-75
2022/03/12 11:28:35;;;;;;;4.50;4.10;;;;;;;;;;5063797;28;20194;-74
2022/03/12 11:31:04;;;;;;;3.92;3.53;;;;;;;;;;5071996;28;20198;-73
2022/03/12 11:33:34;;;;;;;4.38;3.53;;;;;;;;;;5066183;28;20194;-73
2022/03/12 11:36:09;;;;;;;3.28;2.83;;;;;;;;;;5068020;28;20201;-75
2022/03/12 11:38:37;;;;;;;4.38;3.97;;;;;;;;;;5071680;28;20203;-72
2022/03/12 11:41:05;;;;;;;3.85;3.15;;;;;;;;;;5081055;28;20205;-72
2022/03/12 11:43:33;;;;;;;4.80;3.03;;;;;;;;;;5066627;28;20194;-73
2022/03/12 11:46:00;;;;;;;5.38;3.75;;;;;;;;;;5064122;28;20229;-73
2022/03/12 11:48:28;;;;;;;4.32;3.65;;;;;;;;;;5071657;28;20206;-72
2022/03/12 11:50:56;;;;;;;5.90;3.60;;;;;;;;;;5068759;28;20247;-73
2022/03/12 11:53:23;;;;;;;4.80;3.10;;;;;;;;;;5065510;28;20618;-74
2022/03/12 11:55:52;;;;;;;4.25;3.85;;;;;;;;;;5067090;28;20668;-74
2022/03/12 11:58:19;;;;;;;5.65;4.07;;;;;;;;;;5069379;28;20214;-74
2022/03/12 12:00:48;;;;;;;3.75;3.35;;;;;;;;;;5069602;28;20194;-72
2022/03/12 12:03:15;;;;;;;4.45;3.55;;;;;;;;;;5067052;28;20271;-73
2022/03/12 12:05:43;;;;;;;4.30;3.88;;;;;;;;;;5066917;28;20194;-74
2022/03/12 12:08:13;;;;;;;6.20;4.70;;;;;;;;;;5057769;28;20223;-73
2022/03/12 12:10:42;;;;;;;4.70;3.85;;;;;;;;;;5070825;28;20243;-73
2022/03/12 12:13:09;;;;;;;4.53;4.07;;;;;;;;;;5067177;28;20191;-74
2022/03/12 12:15:38;;;;;;;3.95;3.40;;;;;;;;;;5068313;28;20194;-74
2022/03/12 12:18:06;;;;;;;5.20;4.25;;;;;;;;;;5066953;28;20198;-74
2022/03/12 12:20:33;;;;;;;5.40;3.53;;;;;;;;;;5064972;28;20203;-75
2022/03/12 12:23:01;;;;;;;4.80;3.60;;;;;;;;;;5060537;28;20203;-75
2022/03/12 12:25:31;;;;;;;5.75;3.65;;;;;;;;;;5070443;28;20708;-74
2022/03/12 12:27:58;;;;;;;4.03;3.55;;;;;;;;;;5070186;28;20759;-73
2022/03/12 12:30:37;;;;;;;4.40;3.50;;;;;;;;;;5064596;28;20208;-73
2022/03/12 12:33:13;;;;;;;4.50;3.95;;;;;;;;;;5065006;28;20666;-72
2022/03/12 12:35:40;;;;;;;4.45;3.95;;;;;;;;;;5059646;28;20190;-74
2022/03/12 12:38:09;;;;;;;4.20;3.28;;;;;;;;;;5067457;28;20194;-73
2022/03/12 12:40:43;;;;;;;3.40;2.92;;;;;;;;;;5066664;28;20535;-73
2022/03/12 12:43:12;;;;;;;3.47;3.17;;;;;;;;;;5068119;28;20205;-74
2022/03/12 12:45:59;;;;;;;3.85;3.20;;;;;;;;;;5069037;28;20677;-73
2022/03/12 12:48:29;;;;;;;4.88;3.50;;;;;;;;;;5067173;28;20201;-73
2022/03/12 12:51:07;;;;;;;3.50;3.20;;;;;;;;;;5069699;28;20553;-73
2022/03/12 12:53:36;;;;;;;3.58;2.90;;;;;;;;;;5066501;28;20296;-73
2022/03/12 12:56:19;;;;;;;5.60;3.45;;;;;;;;;;5069497;28;20201;-73
2022/03/12 12:58:46;;;;;;;3.42;2.72;;;;;;;;;;5065293;28;20198;-73
2022/03/12 13:01:17;;;;;;;5.47;3.38;;;;;;;;;;5070984;28;20194;-73
2022/03/12 13:03:46;;;;;;;3.45;3.15;;;;;;;;;;5069619;28;20229;-73
2022/03/12 13:06:14;;;;;;;4.18;3.65;;;;;;;;;;5069433;28;20190;-73
2022/03/12 13:08:44;;;;;;;3.50;3.20;;;;;;;;;;5062424;28;20200;-74
2022/03/12 13:11:28;;;;;;;4.60;4.00;;;;;;;;;;5064802;28;20182;-73
2022/03/12 13:13:56;;;;;;;4.68;2.75;;;;;;;;;;5068539;28;20683;-72
2022/03/12 13:16:24;;;;;;;3.22;2.92;;;;;;;;;;5074577;28;20190;-73
2022/03/12 13:18:51;;;;;;;4.25;2.92;;;;;;;;;;5075388;28;20210;-75
2022/03/12 13:21:28;;;;;;;3.08;2.83;;;;;;;;;;5073597;28;20197;-73
2022/03/12 13:23:55;;;;;;;2.92;2.67;;;;;;;;;;5068482;28;20229;-73
2022/03/12 13:26:26;;;;;;;4.03;3.50;;;;;;;;;;5073554;28;20209;-72
2022/03/12 13:28:55;;;;;;;4.50;3.03;;;;;;;;;;5067948;28;20278;-74
2022/03/12 13:31:27;;;;;;;3.83;3.22;;;;;;;;;;5071579;28;20200;-73
2022/03/12 13:34:09;;;;;;;3.58;2.70;;;;;;;;;;5072221;28;20199;-73
2022/03/12 13:36:38;;;;;;;3.17;2.88;;;;;;;;;;5071156;28;20205;-72
2022/03/12 13:39:06;;;;;;;3.50;2.90;;;;;;;;;;5062048;28;20619;-73
2022/03/12 13:41:33;;;;;;;3.08;2.78;;;;;;;;;;5074095;28;20187;-74
2022/03/12 13:44:02;;;;;;;4.90;2.95;;;;;;;;;;5071610;28;20201;-73
2022/03/12 13:46:31;;;;;;;3.50;2.67;;;;;;;;;;5071784;28;20206;-73
2022/03/12 13:48:59;;;;;;;4.20;3.05;;;;;;;;;;5064741;28;20190;-74
2022/03/12 13:51:26;;;;;;;4.28;2.60;;;;;;;;;;5068018;28;20194;-74
2022/03/12 13:53:54;;;;;;;3.38;3.08;;;;;;;;;;5071951;28;20225;-73
2022/03/12 13:56:23;;;;;;;3.38;3.00;;;;;;;;;;5072921;28;20657;-73
2022/03/12 13:58:50;;;;;;;3.17;2.88;;;;;;;;;;5065427;28;20194;-73
2022/03/12 14:01:30;;;;;;;4.78;3.22;;;;;;;;;;5072239;28;20553;-73
2022/03/12 14:03:58;;;;;;;3.65;3.35;;;;;;;;;;5072349;28;20197;-72
2022/03/12 14:06:30;;;;;;;2.90;2.65;;;;;;;;;;5068996;28;20199;-73
2022/03/12 14:08:58;;;;;;;3.20;2.88;;;;;;;;;;5054112;28;20711;-73
2022/03/12 14:11:34;;;;;;;4.07;2.13;;;;;;;;;;5072795;28;20195;-73
2022/03/12 14:14:01;;;;;;;2.83;2.50;;;;;;;;;;5066960;28;20194;-73
2022/03/12 14:16:30;;;;;;;2.72;2.53;;;;;;;;;;5065863;28;20201;-74
2022/03/12 14:18:59;;;;;;;2.85;2.50;;;;;;;;;;5071487;28;20706;-73
2022/03/12 14:21:37;;;;;;;3.40;2.95;;;;;;;;;;5071753;28;20197;-73
2022/03/12 14:24:11;;;;;;;3.45;2.80;;;;;;;;;;5073206;28;20218;-73
2022/03/12 14:26:49;;;;;;;2.53;2.30;;;;;;;;;;5080141;28;20191;-73
2022/03/12 14:29:16;;;;;;;3.67;2.75;;;;;;;;;;5066953;28;20221;-73
2022/03/12 14:31:45;;;;;;;3.25;2.75;;;;;;;;;;5073105;28;20194;-73
2022/03/12 14:34:14;;;;;;;3.63;2.97;;;;;;;;;;5073309;28;20196;-72
2022/03/12 14:36:42;;;;;;;3.05;2.75;;;;;;;;;;5066201;28;20209;-73
2022/03/12 14:39:09;;;;;;;2.75;2.00;;;;;;;;;;5072106;28;20195;-73
2022/03/12 14:41:37;;;;;;;3.35;3.05;;;;;;;;;;5073467;28;20191;-74
2022/03/12 14:44:10;;;;;;;6.00;2.20;;;;;;;;;;5063346;28;20201;-72
2022/03/12 14:46:37;;;;;;;3.30;2.70;;;;;;;;;;5066883;28;20619;-72
2022/03/12 14:49:05;;;;;;;2.75;2.53;;;;;;;;;;5067698;28;20205;-74
2022/03/12 14:51:32;;;;;;;5.60;2.83;;;;;;;;;;5065340;28;20541;-73